Terminal Aerodrome Forecast
Issued by NWS Anchorage, AK

Home | Current Version | Previous Version | Text Only | Print | Product List | Glossary On
Versions: 1 2 3 4 5 6 7 8 9 10 11 12 13 14 15 16 17 18 19 20 21 22 23 24 25 26 27 28 29 30 31 32 33 34 35 36 37 38 39 40 41 42
018
FTAK31 PANC 222332
TAFANC
TAF
PANC 222332Z 2300/2406 05006KT P6SM -RA SCT005 SCT045 OVC060
      TEMPO 2300/2303 BKN005
     FM230300 15008KT P6SM -RA SCT005 SCT025 OVC050
     FM230900 16008G18KT P6SM -RA SCT025 BKN060
     FM231500 VRB04KT P6SM FEW010 SCT050 OVC080
     FM231800 36005KT P6SM BKN090=

USA.gov is the U.S. government's official web portal to all federal, state and local government web resources and services.